createdAt,value
2018-04-19T00:00:18.153Z,21.60
2018-04-19T00:00:49.725Z,21.63
2018-04-19T00:01:21.324Z,21.56
2018-04-19T00:01:52.906Z,21.64
2018-04-19T00:02:24.516Z,21.65
2018-04-19T00:02:56.102Z,21.65
2018-04-19T00:03:27.713Z,21.67
2018-04-19T00:03:59.307Z,21.66
2018-04-19T00:04:30.890Z,21.68
2018-04-19T00:05:02.492Z,21.69
2018-04-19T00:05:34.128Z,21.68
2018-04-19T00:06:05.757Z,21.67
2018-04-19T00:06:37.342Z,21.68
2018-04-19T00:07:08.946Z,21.69
2018-04-19T00:07:40.530Z,21.68
2018-04-19T00:08:12.102Z,21.69
2018-04-19T00:08:43.710Z,21.68
2018-04-19T00:09:15.308Z,21.70
2018-04-19T00:09:46.888Z,21.70
2018-04-19T00:10:18.490Z,21.66
2018-04-19T00:10:50.147Z,21.69
2018-04-19T00:11:21.726Z,21.70
2018-04-19T00:11:53.365Z,21.70
2018-04-19T00:12:24.918Z,21.70
2018-04-19T00:12:56.570Z,21.70
2018-04-19T00:13:28.168Z,21.71
2018-04-19T00:13:59.774Z,21.70
2018-04-19T00:14:31.362Z,21.71
2018-04-19T00:15:02.961Z,21.70
2018-04-19T00:15:34.574Z,21.70
2018-04-19T00:16:06.189Z,21.69
2018-04-19T00:16:37.802Z,21.67
2018-04-19T00:17:09.405Z,21.68
2018-04-19T00:17:41.073Z,21.68
2018-04-19T00:18:12.662Z,21.66
2018-04-19T00:18:44.246Z,21.67
2018-04-19T00:19:15.866Z,21.68
2018-04-19T00:19:47.473Z,21.66
2018-04-19T00:20:19.072Z,21.69
2018-04-19T00:20:50.678Z,21.67
2018-04-19T00:21:22.290Z,21.67
2018-04-19T00:21:53.888Z,21.67
2018-04-19T00:22:25.484Z,21.64
2018-04-19T00:22:57.113Z,21.64
2018-04-19T00:23:28.714Z,21.63
2018-04-19T00:24:00.349Z,21.62
2018-04-19T00:24:31.928Z,21.61
2018-04-19T00:25:03.510Z,21.61
2018-04-19T00:25:35.123Z,21.61
2018-04-19T00:26:06.714Z,21.59
2018-04-19T00:26:38.309Z,21.43
2018-04-19T00:27:09.909Z,21.58
2018-04-19T00:27:41.513Z,21.55
2018-04-19T00:28:13.097Z,21.52
2018-04-19T00:28:44.694Z,21.54
2018-04-19T00:29:16.299Z,21.54
2018-04-19T00:29:47.917Z,21.54
2018-04-19T00:30:19.502Z,21.53
2018-04-19T00:30:51.072Z,21.53
2018-04-19T00:31:22.702Z,21.54
2018-04-19T00:31:54.302Z,21.53
2018-04-19T00:32:25.881Z,21.53
2018-04-19T00:32:57.481Z,21.52
2018-04-19T00:33:29.076Z,21.51
2018-04-19T00:34:00.684Z,21.50
2018-04-19T00:34:32.290Z,21.50
2018-04-19T00:35:03.877Z,21.49
2018-04-19T00:35:35.490Z,21.50
2018-04-19T00:36:07.068Z,21.49
2018-04-19T00:36:38.702Z,21.48
2018-04-19T00:37:10.292Z,21.48
2018-04-19T00:37:41.898Z,21.47
2018-04-19T00:38:13.500Z,21.48
2018-04-19T00:38:45.082Z,21.48
2018-04-19T00:39:16.686Z,21.48
2018-04-19T00:39:48.274Z,21.48
2018-04-19T00:40:19.848Z,21.48
2018-04-19T00:40:51.458Z,21.49
2018-04-19T00:41:23.046Z,21.49
2018-04-19T00:41:54.678Z,21.47
2018-04-19T00:42:26.244Z,21.47
2018-04-19T00:42:57.850Z,21.48
2018-04-19T00:43:29.458Z,21.47
2018-04-19T00:44:01.043Z,21.49
2018-04-19T00:44:32.621Z,21.47
2018-04-19T00:45:04.226Z,21.46
2018-04-19T00:45:35.834Z,21.47
2018-04-19T00:46:07.445Z,21.46
2018-04-19T00:46:39.024Z,21.46
2018-04-19T00:47:10.650Z,21.45
2018-04-19T00:47:42.224Z,21.47
2018-04-19T00:48:13.806Z,21.48
2018-04-19T00:48:45.409Z,21.50
2018-04-19T00:49:16.998Z,21.50
2018-04-19T00:49:48.577Z,21.53
2018-04-19T00:50:20.172Z,21.53
2018-04-19T00:50:51.748Z,21.53
2018-04-19T00:51:23.334Z,21.53
2018-04-19T00:51:54.929Z,21.58
2018-04-19T00:52:26.663Z,21.62
2018-04-19T00:52:58.255Z,21.61
2018-04-19T00:53:29.829Z,21.57
2018-04-19T00:54:01.405Z,21.53
2018-04-19T00:54:33.010Z,21.51
2018-04-19T00:55:04.604Z,21.50
2018-04-19T00:55:36.180Z,21.48
2018-04-19T00:56:07.765Z,21.46
2018-04-19T00:56:39.379Z,21.45
2018-04-19T00:57:10.988Z,21.46
2018-04-19T00:57:42.622Z,21.47
2018-04-19T00:58:14.222Z,21.48
2018-04-19T00:58:45.829Z,21.48
2018-04-19T00:59:17.432Z,21.49
2018-04-19T00:59:49.010Z,21.51
2018-04-19T01:00:20.580Z,21.51
2018-04-19T01:00:52.162Z,21.50
2018-04-19T01:01:23.765Z,21.51
2018-04-19T01:01:55.363Z,21.52
2018-04-19T01:02:26.950Z,21.53
2018-04-19T01:02:58.593Z,21.56
2018-04-19T01:03:30.192Z,21.56
2018-04-19T01:04:01.798Z,21.57
2018-04-19T01:04:33.389Z,21.56
2018-04-19T01:05:04.999Z,21.57
2018-04-19T01:05:36.585Z,21.59
2018-04-19T01:06:08.194Z,21.57
2018-04-19T01:06:39.786Z,21.55
2018-04-19T01:07:11.366Z,21.57
2018-04-19T01:07:42.940Z,21.56
2018-04-19T01:08:14.541Z,21.54
2018-04-19T01:08:46.136Z,21.54
2018-04-19T01:09:17.719Z,21.54
2018-04-19T01:09:49.334Z,21.53
2018-04-19T01:10:20.985Z,21.54
2018-04-19T01:10:52.550Z,21.55
2018-04-19T01:11:24.124Z,21.53
2018-04-19T01:11:55.696Z,21.54
2018-04-19T01:12:27.281Z,21.54
2018-04-19T01:12:58.890Z,21.54
2018-04-19T01:13:30.562Z,21.55
2018-04-19T01:14:02.146Z,21.55
2018-04-19T01:14:33.746Z,21.54
2018-04-19T01:15:05.329Z,21.57
2018-04-19T01:15:36.933Z,21.58
2018-04-19T01:16:08.521Z,21.58
2018-04-19T01:16:40.128Z,21.59
2018-04-19T01:17:11.734Z,21.58
2018-04-19T01:17:43.348Z,21.57
2018-04-19T01:18:14.955Z,21.55
2018-04-19T01:18:46.543Z,21.54
2018-04-19T01:19:18.132Z,21.54
2018-04-19T01:19:49.733Z,21.24
2018-04-19T01:20:21.354Z,21.53
2018-04-19T01:20:52.960Z,21.53
2018-04-19T01:21:24.558Z,21.54
2018-04-19T01:21:56.152Z,21.54
2018-04-19T01:22:27.748Z,21.53
2018-04-19T01:22:59.358Z,21.54
2018-04-19T01:23:30.946Z,21.56
2018-04-19T01:24:02.526Z,21.54
2018-04-19T01:24:34.114Z,21.54
2018-04-19T01:25:05.696Z,21.54
2018-04-19T01:25:37.310Z,21.54
2018-04-19T01:26:08.898Z,21.56
2018-04-19T01:26:40.506Z,21.55
2018-04-19T01:27:12.095Z,21.54
2018-04-19T01:27:43.678Z,21.54
2018-04-19T01:28:15.304Z,21.54
2018-04-19T01:28:46.872Z,21.56
2018-04-19T01:29:18.479Z,21.57
2018-04-19T01:29:50.090Z,21.53
2018-04-19T01:30:21.693Z,21.54
2018-04-19T01:30:53.282Z,21.55
2018-04-19T01:31:24.863Z,21.54
2018-04-19T01:31:56.471Z,21.55
2018-04-19T01:32:28.068Z,21.57
2018-04-19T01:32:59.660Z,21.56
2018-04-19T01:33:31.283Z,21.54
2018-04-19T01:34:02.867Z,21.53
2018-04-19T01:34:34.480Z,21.53
2018-04-19T01:35:06.082Z,21.54
2018-04-19T01:35:37.673Z,21.52
2018-04-19T01:36:09.244Z,21.54
2018-04-19T01:36:40.846Z,21.55
2018-04-19T01:37:12.435Z,21.54
2018-04-19T01:37:44.041Z,21.55
2018-04-19T01:38:15.653Z,21.54
2018-04-19T01:38:47.306Z,21.55
2018-04-19T01:39:18.919Z,21.55
2018-04-19T01:39:50.501Z,21.55
2018-04-19T01:40:22.110Z,21.55
2018-04-19T01:40:53.698Z,21.55
2018-04-19T01:41:25.340Z,21.55
2018-04-19T01:41:56.950Z,21.55
2018-04-19T01:42:28.548Z,21.55
2018-04-19T01:43:00.120Z,21.56
2018-04-19T01:43:31.708Z,21.57
2018-04-19T01:44:03.292Z,21.57
2018-04-19T01:44:34.871Z,21.56
2018-04-19T01:45:06.463Z,21.57
2018-04-19T01:45:38.050Z,21.57
2018-04-19T01:46:09.633Z,21.57
2018-04-19T01:46:41.394Z,21.57
2018-04-19T01:47:12.983Z,21.57
2018-04-19T01:47:44.570Z,21.58
2018-04-19T01:48:16.173Z,21.58
2018-04-19T01:48:47.759Z,21.58
2018-04-19T01:49:19.333Z,21.55
2018-04-19T01:49:50.916Z,21.56
2018-04-19T01:50:22.494Z,21.57
2018-04-19T01:50:54.108Z,21.58
2018-04-19T01:51:25.718Z,21.55
2018-04-19T01:51:57.330Z,21.53
2018-04-19T01:52:28.942Z,21.55
2018-04-19T01:53:00.550Z,21.58
2018-04-19T01:53:32.162Z,21.55
2018-04-19T01:54:03.756Z,21.55
2018-04-19T01:54:35.356Z,21.54
2018-04-19T01:55:06.942Z,21.55
2018-04-19T01:55:38.545Z,21.58
2018-04-19T01:56:10.198Z,21.58
2018-04-19T01:56:41.776Z,21.58
2018-04-19T01:57:13.358Z,21.59
2018-04-19T01:57:44.943Z,21.60
2018-04-19T01:58:16.549Z,21.61
2018-04-19T01:58:48.198Z,21.60
2018-04-19T01:59:19.806Z,21.57
2018-04-19T01:59:51.420Z,21.60
2018-04-19T02:00:23.021Z,21.59
2018-04-19T02:00:54.616Z,21.59
2018-04-19T02:01:26.262Z,21.60
2018-04-19T02:01:57.874Z,21.59
2018-04-19T02:02:29.454Z,21.58
2018-04-19T02:03:01.048Z,21.59
2018-04-19T02:03:32.654Z,21.60
2018-04-19T02:04:04.262Z,21.60
2018-04-19T02:04:35.850Z,21.60
2018-04-19T02:05:07.453Z,21.58
2018-04-19T02:05:39.052Z,21.59
2018-04-19T02:06:10.699Z,21.60
2018-04-19T02:06:42.286Z,21.59
2018-04-19T02:07:13.897Z,21.59
2018-04-19T02:07:45.522Z,21.59
2018-04-19T02:08:17.110Z,21.58
2018-04-19T02:08:48.714Z,21.58
2018-04-19T02:09:20.309Z,21.55
2018-04-19T02:09:51.914Z,21.57
2018-04-19T02:10:23.498Z,21.57
2018-04-19T02:10:55.082Z,21.57
2018-04-19T02:11:26.735Z,21.57
2018-04-19T02:11:58.349Z,21.59
2018-04-19T02:12:29.962Z,21.59
2018-04-19T02:13:01.574Z,21.59
2018-04-19T02:13:33.162Z,21.57
2018-04-19T02:14:04.744Z,21.55
2018-04-19T02:14:36.347Z,21.58
2018-04-19T02:15:07.978Z,21.57
2018-04-19T02:15:39.558Z,21.58
2018-04-19T02:16:11.146Z,21.57
2018-04-19T02:16:42.751Z,21.57
2018-04-19T02:17:14.361Z,21.57
2018-04-19T02:17:45.939Z,21.56
2018-04-19T02:18:17.552Z,21.54
2018-04-19T02:18:49.163Z,21.54
2018-04-19T02:19:20.737Z,21.54
2018-04-19T02:19:52.332Z,21.53
2018-04-19T02:20:23.918Z,21.52
2018-04-19T02:20:55.502Z,21.52
2018-04-19T02:21:27.075Z,21.40
2018-04-19T02:21:58.652Z,21.51
2018-04-19T02:22:30.238Z,21.50
2018-04-19T02:23:01.842Z,21.49
2018-04-19T02:23:33.450Z,21.48
2018-04-19T02:24:05.033Z,21.49
2018-04-19T02:24:36.638Z,21.48
2018-04-19T02:25:08.253Z,21.48
2018-04-19T02:25:39.835Z,21.47
2018-04-19T02:26:11.469Z,21.47
2018-04-19T02:26:43.058Z,21.48
2018-04-19T02:27:14.661Z,21.49
2018-04-19T02:27:46.264Z,21.47
2018-04-19T02:28:17.860Z,21.45
2018-04-19T02:28:49.521Z,21.46
2018-04-19T02:29:21.098Z,21.45
2018-04-19T02:29:52.676Z,21.44
2018-04-19T02:30:24.365Z,21.44
2018-04-19T02:30:55.954Z,21.44
2018-04-19T02:31:27.542Z,21.42
2018-04-19T02:31:59.136Z,21.41
2018-04-19T02:32:30.722Z,21.41
2018-04-19T02:33:02.330Z,21.40
2018-04-19T02:33:33.918Z,21.39
2018-04-19T02:34:05.566Z,21.40
2018-04-19T02:34:37.151Z,21.39
2018-04-19T02:35:08.755Z,21.40
2018-04-19T02:35:40.376Z,21.39
2018-04-19T02:36:11.980Z,21.40
2018-04-19T02:36:43.575Z,21.38
2018-04-19T02:37:15.185Z,21.38
2018-04-19T02:37:46.829Z,21.38
2018-04-19T02:38:18.473Z,21.38
2018-04-19T02:38:50.050Z,21.39
2018-04-19T02:39:21.625Z,21.39
2018-04-19T02:39:53.261Z,21.39
2018-04-19T02:40:24.870Z,21.41
2018-04-19T02:40:56.477Z,21.41
2018-04-19T02:41:28.073Z,21.41
2018-04-19T02:41:59.687Z,21.41
2018-04-19T02:42:31.299Z,21.41
2018-04-19T02:43:02.906Z,21.41
2018-04-19T02:43:34.514Z,21.41
2018-04-19T02:44:06.089Z,21.42
2018-04-19T02:44:37.708Z,21.42
2018-04-19T02:45:09.311Z,21.42
2018-04-19T02:45:40.923Z,21.42
2018-04-19T02:46:12.528Z,21.42
2018-04-19T02:46:44.134Z,21.42
2018-04-19T02:47:15.786Z,21.42
2018-04-19T02:47:47.450Z,21.43
2018-04-19T02:48:19.044Z,21.41
2018-04-19T02:48:50.659Z,21.39
2018-04-19T02:49:22.260Z,21.39
2018-04-19T02:49:53.832Z,21.38
2018-04-19T02:50:25.480Z,21.38
2018-04-19T02:50:57.049Z,21.36
2018-04-19T02:51:28.655Z,21.37
2018-04-19T02:52:00.255Z,21.36
2018-04-19T02:52:31.868Z,21.35
2018-04-19T02:53:03.530Z,21.36
2018-04-19T02:53:35.126Z,21.35
2018-04-19T02:54:06.715Z,21.35
2018-04-19T02:54:38.299Z,21.36
2018-04-19T02:55:10.202Z,21.34
2018-04-19T02:55:41.790Z,21.36
2018-04-19T02:56:13.390Z,21.36
2018-04-19T02:56:45.008Z,21.36
2018-04-19T02:57:16.626Z,21.35
2018-04-19T02:57:48.206Z,21.36
2018-04-19T02:58:19.820Z,21.36
2018-04-19T02:58:51.430Z,21.39
2018-04-19T02:59:23.022Z,21.39
2018-04-19T02:59:54.875Z,21.40
2018-04-19T03:00:26.489Z,21.39
2018-04-19T03:00:58.074Z,21.40
2018-04-19T03:01:29.659Z,21.40
2018-04-19T03:02:01.267Z,21.42
2018-04-19T03:02:32.850Z,21.42
2018-04-19T03:03:04.436Z,21.43
2018-04-19T03:03:36.276Z,21.42
2018-04-19T03:04:07.882Z,21.43
2018-04-19T03:04:39.466Z,21.45
2018-04-19T03:05:11.073Z,21.46
2018-04-19T03:05:42.650Z,21.45
2018-04-19T03:06:14.271Z,21.45
2018-04-19T03:06:45.857Z,21.46
2018-04-19T03:07:17.443Z,21.45
2018-04-19T03:07:49.045Z,21.44
2018-04-19T03:08:20.623Z,21.45
2018-04-19T03:08:52.262Z,21.45
2018-04-19T03:09:23.856Z,21.45
2018-04-19T03:09:55.461Z,21.45
2018-04-19T03:10:27.049Z,21.46
2018-04-19T03:10:58.673Z,21.48
2018-04-19T03:11:30.245Z,21.48
2018-04-19T03:12:01.834Z,21.47
2018-04-19T03:12:33.494Z,21.48
2018-04-19T03:13:05.050Z,21.51
2018-04-19T03:13:36.644Z,21.53
2018-04-19T03:14:08.255Z,21.54
2018-04-19T03:14:39.879Z,21.55
2018-04-19T03:15:11.513Z,21.58
2018-04-19T03:15:43.084Z,21.59
2018-04-19T03:16:14.669Z,21.59
2018-04-19T03:16:46.249Z,21.59
2018-04-19T03:17:17.839Z,21.60
2018-04-19T03:17:49.450Z,21.61
2018-04-19T03:18:21.068Z,21.58
2018-04-19T03:18:52.679Z,21.62
2018-04-19T03:19:24.303Z,21.63
2018-04-19T03:19:55.886Z,21.61
2018-04-19T03:20:27.559Z,21.60
2018-04-19T03:20:59.112Z,21.60
2018-04-19T03:21:30.694Z,21.61
2018-04-19T03:22:02.278Z,21.61
2018-04-19T03:22:33.889Z,21.61
2018-04-19T03:23:05.480Z,21.60
2018-04-19T03:23:37.062Z,21.60
2018-04-19T03:24:08.665Z,21.59
2018-04-19T03:24:40.237Z,21.61
2018-04-19T03:25:11.915Z,21.62
2018-04-19T03:25:43.531Z,21.61
2018-04-19T03:26:15.122Z,21.60
2018-04-19T03:26:46.706Z,21.60
2018-04-19T03:27:18.321Z,21.60
2018-04-19T03:27:49.945Z,21.61
2018-04-19T03:28:21.517Z,21.61
2018-04-19T03:28:53.098Z,21.60
2018-04-19T03:29:24.681Z,21.60
2018-04-19T03:29:56.261Z,21.62
2018-04-19T03:30:27.897Z,21.61
2018-04-19T03:30:59.519Z,21.60
2018-04-19T03:31:31.116Z,21.59
2018-04-19T03:32:02.730Z,21.58
2018-04-19T03:32:34.318Z,21.58
2018-04-19T03:33:05.936Z,21.58
2018-04-19T03:33:37.532Z,21.57
2018-04-19T03:34:09.138Z,21.55
2018-04-19T03:34:40.720Z,21.55
2018-04-19T03:35:12.302Z,21.54
2018-04-19T03:35:43.970Z,21.55
2018-04-19T03:36:15.568Z,21.53
2018-04-19T03:36:47.222Z,21.52
2018-04-19T03:37:18.885Z,21.51
2018-04-19T03:37:50.469Z,21.53
2018-04-19T03:38:22.040Z,21.51
2018-04-19T03:38:53.627Z,21.52
2018-04-19T03:39:25.238Z,21.53
2018-04-19T03:39:56.846Z,21.55
2018-04-19T03:40:28.454Z,21.53
2018-04-19T03:41:00.070Z,21.51
2018-04-19T03:41:31.644Z,21.52
2018-04-19T03:42:03.254Z,21.50
2018-04-19T03:42:34.882Z,21.51
2018-04-19T03:43:06.462Z,21.49
2018-04-19T03:43:38.057Z,21.49
2018-04-19T03:44:09.651Z,21.49
2018-04-19T03:44:41.242Z,21.49
2018-04-19T03:45:12.853Z,21.48
2018-04-19T03:45:44.442Z,21.48
2018-04-19T03:46:16.043Z,21.48
2018-04-19T03:46:47.696Z,21.46
2018-04-19T03:47:19.278Z,21.46
2018-04-19T03:47:50.882Z,21.47
2018-04-19T03:48:22.470Z,21.47
2018-04-19T03:48:54.077Z,21.49
2018-04-19T03:49:25.662Z,21.48
2018-04-19T03:49:57.236Z,21.49
2018-04-19T03:50:28.825Z,21.49
2018-04-19T03:51:00.426Z,21.50
2018-04-19T03:51:32.001Z,21.49
2018-04-19T03:52:03.586Z,21.50
2018-04-19T03:52:35.157Z,21.49
2018-04-19T03:53:06.762Z,21.50
2018-04-19T03:53:38.338Z,21.49
2018-04-19T03:54:09.926Z,21.48
2018-04-19T03:54:41.524Z,21.48
2018-04-19T03:55:13.124Z,21.48
2018-04-19T03:55:44.733Z,21.49
2018-04-19T03:56:16.350Z,21.47
2018-04-19T03:56:47.939Z,21.45
2018-04-19T03:57:19.575Z,21.45
2018-04-19T03:57:51.161Z,21.43
2018-04-19T03:58:22.744Z,21.42
2018-04-19T03:58:54.349Z,21.40
2018-04-19T03:59:25.939Z,21.42
2018-04-19T03:59:57.538Z,21.42
2018-04-19T04:00:29.126Z,21.46
2018-04-19T04:01:00.752Z,21.44
2018-04-19T04:01:32.314Z,21.43
2018-04-19T04:02:03.884Z,21.42
2018-04-19T04:02:35.520Z,21.43
2018-04-19T04:03:07.116Z,21.42
2018-04-19T04:03:38.703Z,21.40
2018-04-19T04:04:10.294Z,21.37
2018-04-19T04:04:41.898Z,21.38
2018-04-19T04:05:13.492Z,21.37
2018-04-19T04:05:45.078Z,21.39
2018-04-19T04:06:16.680Z,21.36
2018-04-19T04:06:48.300Z,21.37
2018-04-19T04:07:19.890Z,21.38
2018-04-19T04:07:51.514Z,21.36
2018-04-19T04:08:23.108Z,21.36
2018-04-19T04:08:54.720Z,21.36
2018-04-19T04:09:26.309Z,21.34
2018-04-19T04:09:57.920Z,21.35
2018-04-19T04:10:29.497Z,21.35
2018-04-19T04:11:01.103Z,21.33
2018-04-19T04:11:33.319Z,21.34
2018-04-19T04:12:04.916Z,21.34
2018-04-19T04:12:36.506Z,21.32
2018-04-19T04:13:08.105Z,21.34
2018-04-19T04:13:39.694Z,21.33
2018-04-19T04:14:11.327Z,21.32
2018-04-19T04:14:42.971Z,21.33
2018-04-19T04:15:14.570Z,21.33
2018-04-19T04:15:46.182Z,21.32
2018-04-19T04:16:17.780Z,21.32
2018-04-19T04:16:49.413Z,21.32
2018-04-19T04:17:21.002Z,21.31
2018-04-19T04:17:52.608Z,21.31
2018-04-19T04:18:24.261Z,21.31
2018-04-19T04:18:55.874Z,21.31
2018-04-19T04:19:27.464Z,21.31
2018-04-19T04:19:59.037Z,21.31
2018-04-19T04:20:30.649Z,21.31
2018-04-19T04:21:02.228Z,21.32
2018-04-19T04:21:33.834Z,21.31
2018-04-19T04:22:05.447Z,21.32
2018-04-19T04:22:37.025Z,21.32
2018-04-19T04:23:08.638Z,21.33
2018-04-19T04:23:40.236Z,21.33
2018-04-19T04:24:11.822Z,21.32
2018-04-19T04:24:43.447Z,21.32
2018-04-19T04:25:15.055Z,21.32
2018-04-19T04:25:46.667Z,21.32
2018-04-19T04:26:18.273Z,21.32
2018-04-19T04:26:49.857Z,21.32
2018-04-19T04:27:21.461Z,21.34
2018-04-19T04:27:53.084Z,21.35
2018-04-19T04:28:24.689Z,21.36
2018-04-19T04:28:56.278Z,21.37
2018-04-19T04:29:27.881Z,21.37
2018-04-19T04:29:59.456Z,21.38
2018-04-19T04:30:31.042Z,21.38
2018-04-19T04:31:02.631Z,21.41
2018-04-19T04:31:34.233Z,21.43
2018-04-19T04:32:05.842Z,21.44
2018-04-19T04:32:37.430Z,21.45
2018-04-19T04:33:09.067Z,21.46
2018-04-19T04:33:40.654Z,21.49
2018-04-19T04:34:12.262Z,21.53
2018-04-19T04:34:43.846Z,21.57
2018-04-19T04:35:15.460Z,21.59
2018-04-19T04:35:47.050Z,21.59
2018-04-19T04:36:18.641Z,21.64
2018-04-19T04:36:50.222Z,21.64
2018-04-19T04:37:21.806Z,21.66
2018-04-19T04:37:53.413Z,21.66
2018-04-19T04:38:25.028Z,21.46
2018-04-19T04:38:56.622Z,21.65
2018-04-19T04:39:28.226Z,21.67
2018-04-19T04:39:59.826Z,21.66
2018-04-19T04:40:31.433Z,21.70
2018-04-19T04:41:03.013Z,21.60
2018-04-19T04:41:34.622Z,21.71
2018-04-19T04:42:06.234Z,21.72
2018-04-19T04:42:37.841Z,21.72
2018-04-19T04:43:09.494Z,21.71
2018-04-19T04:43:41.082Z,21.73
2018-04-19T04:44:12.694Z,21.76
2018-04-19T04:44:44.282Z,21.88
2018-04-19T04:45:15.871Z,21.93
2018-04-19T04:45:47.454Z,21.94
2018-04-19T04:46:19.058Z,21.97
2018-04-19T04:46:50.686Z,22.02
2018-04-19T04:47:22.291Z,22.01
2018-04-19T04:47:53.967Z,22.01
2018-04-19T04:48:25.546Z,22.02
2018-04-19T04:48:57.147Z,22.03
2018-04-19T04:49:28.721Z,22.03
2018-04-19T04:50:00.322Z,22.02
2018-04-19T04:50:31.918Z,22.01
2018-04-19T04:51:03.514Z,22.04
2018-04-19T04:51:35.151Z,22.05
2018-04-19T04:52:06.725Z,22.03
2018-04-19T04:52:38.320Z,22.01
2018-04-19T04:53:09.925Z,22.02
2018-04-19T04:53:41.547Z,22.04
2018-04-19T04:54:13.133Z,22.07
2018-04-19T04:54:44.729Z,22.06
2018-04-19T04:55:16.342Z,22.04
2018-04-19T04:55:47.920Z,22.01
2018-04-19T04:56:19.524Z,22.01
2018-04-19T04:56:51.184Z,22.00
2018-04-19T04:57:22.780Z,21.98
2018-04-19T04:57:54.356Z,21.97
2018-04-19T04:58:25.932Z,21.96
2018-04-19T04:58:57.533Z,21.92
2018-04-19T04:59:29.124Z,21.93
2018-04-19T05:00:00.778Z,21.92
2018-04-19T05:00:32.374Z,21.93
2018-04-19T05:01:03.977Z,21.92
2018-04-19T05:01:35.625Z,21.91
2018-04-19T05:02:07.212Z,21.90
2018-04-19T05:02:38.798Z,21.86
2018-04-19T05:03:10.406Z,21.84
2018-04-19T05:03:42.014Z,21.85
2018-04-19T05:04:13.602Z,21.82
2018-04-19T05:04:45.186Z,21.80
2018-04-19T05:05:16.770Z,21.78
2018-04-19T05:05:48.397Z,21.78
2018-04-19T05:06:20.015Z,21.79
2018-04-19T05:06:51.613Z,21.79
2018-04-19T05:07:23.205Z,21.79
2018-04-19T05:07:54.792Z,21.77
2018-04-19T05:08:26.430Z,21.75
2018-04-19T05:08:58.004Z,21.75
2018-04-19T05:09:29.598Z,21.74
2018-04-19T05:10:01.197Z,21.73
2018-04-19T05:10:32.801Z,21.72
2018-04-19T05:11:04.405Z,21.72
2018-04-19T05:11:35.997Z,21.72
2018-04-19T05:12:07.588Z,21.72
2018-04-19T05:12:39.176Z,21.72
2018-04-19T05:13:10.830Z,21.72
2018-04-19T05:13:42.416Z,21.70
2018-04-19T05:14:14.026Z,21.68
2018-04-19T05:14:45.604Z,21.68
2018-04-19T05:15:17.205Z,21.67
2018-04-19T05:15:48.810Z,21.66
2018-04-19T05:16:20.398Z,21.66
2018-04-19T05:16:52.002Z,21.66
2018-04-19T05:17:23.590Z,21.65
2018-04-19T05:17:55.175Z,21.64
2018-04-19T05:18:26.798Z,21.63
2018-04-19T05:18:58.375Z,21.62
2018-04-19T05:19:29.979Z,21.61
2018-04-19T05:20:01.570Z,21.59
2018-04-19T05:20:33.182Z,21.59
2018-04-19T05:21:04.794Z,21.59
2018-04-19T05:21:36.549Z,21.58
2018-04-19T05:22:08.116Z,21.58
2018-04-19T05:22:39.693Z,21.59
2018-04-19T05:23:11.266Z,21.59
2018-04-19T05:23:42.855Z,21.60
2018-04-19T05:24:14.442Z,21.59
2018-04-19T05:24:46.051Z,21.59
2018-04-19T05:25:17.634Z,21.60
2018-04-19T05:25:49.221Z,21.58
2018-04-19T05:26:20.822Z,21.58
2018-04-19T05:26:52.420Z,21.58
2018-04-19T05:27:24.030Z,21.58
2018-04-19T05:27:55.640Z,21.59
2018-04-19T05:28:27.250Z,21.58
2018-04-19T05:28:58.861Z,21.57
2018-04-19T05:29:30.453Z,21.57
2018-04-19T05:30:02.075Z,21.55
2018-04-19T05:30:33.677Z,21.62
2018-04-19T05:31:05.262Z,21.75
2018-04-19T05:31:36.871Z,21.71
2018-04-19T05:32:08.526Z,21.49
2018-04-19T05:32:40.115Z,21.21
2018-04-19T05:33:11.721Z,21.06
2018-04-19T05:33:43.329Z,20.85
2018-04-19T05:34:14.932Z,20.60
2018-04-19T05:34:46.532Z,20.32
2018-04-19T05:35:18.118Z,20.12
2018-04-19T05:35:49.721Z,19.97
2018-04-19T05:36:21.350Z,19.82
2018-04-19T05:36:52.953Z,19.70
2018-04-19T05:37:24.534Z,19.56
2018-04-19T05:37:56.137Z,19.63
2018-04-19T05:38:27.805Z,19.74
2018-04-19T05:38:59.422Z,19.87
2018-04-19T05:39:31.020Z,20.00
2018-04-19T05:40:02.612Z,20.10
2018-04-19T05:40:34.192Z,20.22
2018-04-19T05:41:05.820Z,20.32
2018-04-19T05:41:37.427Z,20.39
2018-04-19T05:42:09.034Z,20.47
2018-04-19T05:42:40.622Z,20.53
2018-04-19T05:43:12.203Z,20.60
2018-04-19T05:43:43.796Z,20.64
2018-04-19T05:44:15.376Z,20.69
2018-04-19T05:44:47.000Z,20.73
2018-04-19T05:45:18.645Z,20.78
2018-04-19T05:45:50.230Z,20.78
2018-04-19T05:46:21.839Z,20.82
2018-04-19T05:46:53.425Z,20.84
2018-04-19T05:47:25.016Z,20.86
2018-04-19T05:47:56.634Z,20.87
2018-04-19T05:48:28.290Z,20.89
2018-04-19T05:48:59.902Z,20.91
2018-04-19T05:49:31.494Z,20.92
2018-04-19T05:50:03.074Z,20.93
2018-04-19T05:50:34.644Z,20.94
2018-04-19T05:51:06.266Z,20.96
2018-04-19T05:51:37.850Z,20.98
2018-04-19T05:52:09.450Z,21.00
2018-04-19T05:52:41.024Z,20.88
2018-04-19T05:53:12.611Z,21.04
2018-04-19T05:53:44.208Z,21.05
2018-04-19T05:54:15.797Z,21.07
2018-04-19T05:54:47.414Z,21.09
2018-04-19T05:55:19.061Z,21.12
2018-04-19T05:55:50.640Z,21.13
2018-04-19T05:56:22.231Z,21.16
2018-04-19T05:56:53.818Z,21.17
2018-04-19T05:57:25.414Z,21.21
2018-04-19T05:57:57.017Z,21.24
2018-04-19T05:58:28.602Z,21.26
2018-04-19T05:59:00.188Z,21.27
2018-04-19T05:59:31.760Z,21.28
2018-04-19T06:00:03.400Z,21.30
2018-04-19T06:00:35.066Z,21.30
2018-04-19T06:01:06.670Z,21.32
2018-04-19T06:01:38.269Z,21.32
2018-04-19T06:02:09.864Z,21.34
2018-04-19T06:02:41.449Z,21.35
2018-04-19T06:03:13.020Z,21.38
2018-04-19T06:03:44.612Z,21.40
2018-04-19T06:04:16.198Z,21.41
2018-04-19T06:04:47.786Z,21.41
2018-04-19T06:05:19.370Z,21.42
2018-04-19T06:05:51.030Z,21.44
2018-04-19T06:06:22.634Z,21.44
2018-04-19T06:06:54.246Z,21.45
2018-04-19T06:07:25.854Z,21.45
2018-04-19T06:07:57.443Z,21.45
2018-04-19T06:08:29.010Z,21.44
2018-04-19T06:09:00.633Z,21.50
2018-04-19T06:09:32.237Z,21.52
2018-04-19T06:10:03.846Z,21.53
2018-04-19T06:10:35.430Z,21.54
2018-04-19T06:11:07.058Z,21.57
2018-04-19T06:11:38.662Z,21.56
2018-04-19T06:12:10.250Z,21.56
2018-04-19T06:12:41.862Z,21.55
2018-04-19T06:13:13.470Z,21.57
2018-04-19T06:13:45.083Z,21.58
2018-04-19T06:14:16.676Z,21.59
2018-04-19T06:14:48.316Z,21.59
2018-04-19T06:15:19.957Z,21.63
2018-04-19T06:15:51.533Z,21.62
2018-04-19T06:16:23.193Z,21.61
2018-04-19T06:16:54.805Z,21.63
2018-04-19T06:17:26.410Z,21.65
2018-04-19T06:17:58.022Z,21.66
2018-04-19T06:18:29.635Z,21.66
2018-04-19T06:19:01.236Z,21.68
2018-04-19T06:19:32.858Z,21.69
2018-04-19T06:20:04.465Z,21.71
2018-04-19T06:20:36.113Z,21.73
2018-04-19T06:21:07.703Z,21.74
2018-04-19T06:21:39.333Z,21.74
2018-04-19T06:22:10.958Z,21.74
2018-04-19T06:22:42.578Z,21.76
2018-04-19T06:23:14.185Z,21.75
2018-04-19T06:23:45.771Z,21.73
2018-04-19T06:24:17.358Z,21.74
2018-04-19T06:24:48.965Z,21.76
2018-04-19T06:25:20.554Z,21.77
2018-04-19T06:25:52.508Z,21.77
2018-04-19T06:26:24.174Z,21.76
2018-04-19T06:26:55.782Z,21.76
2018-04-19T06:27:27.352Z,21.76
2018-04-19T06:27:58.958Z,21.75
2018-04-19T06:28:30.574Z,21.74
2018-04-19T06:29:02.186Z,21.72
2018-04-19T06:29:33.778Z,21.73
2018-04-19T06:30:05.398Z,21.72
2018-04-19T06:30:37.046Z,21.72
2018-04-19T06:31:08.650Z,21.70
2018-04-19T06:31:40.238Z,21.70
2018-04-19T06:32:11.838Z,21.67
2018-04-19T06:32:43.435Z,21.67
2018-04-19T06:33:15.026Z,21.67
2018-04-19T06:33:46.630Z,21.66
2018-04-19T06:34:18.232Z,21.67
2018-04-19T06:34:49.817Z,21.66
2018-04-19T06:35:21.402Z,21.64
2018-04-19T06:35:53.056Z,21.63
2018-04-19T06:36:24.670Z,21.62
2018-04-19T06:36:56.284Z,21.61
2018-04-19T06:37:27.898Z,21.61
2018-04-19T06:37:59.496Z,21.60
2018-04-19T06:38:31.095Z,21.60
2018-04-19T06:39:02.706Z,21.58
2018-04-19T06:39:34.294Z,21.57
2018-04-19T06:40:05.878Z,21.56
2018-04-19T06:40:37.466Z,21.56
2018-04-19T06:41:09.070Z,21.56
2018-04-19T06:41:40.687Z,21.56
2018-04-19T06:42:12.350Z,21.56
2018-04-19T06:42:43.938Z,21.56
2018-04-19T06:43:15.532Z,21.54
2018-04-19T06:43:47.126Z,21.50
2018-04-19T06:44:18.741Z,21.53
2018-04-19T06:44:50.362Z,21.54
2018-04-19T06:45:21.960Z,21.51
2018-04-19T06:45:53.536Z,21.50
2018-04-19T06:46:25.110Z,21.51
2018-04-19T06:46:56.827Z,21.49